Time;durP1;ratioP1;P1;durP2;ratioP2;P2;SDS_P1;SDS_P2;PMS_P1;PMS_P2;Temp;Humidity;BMP_temperature;BMP_pressure;BME280_temperature;BME280_humidity;BME280_pressure;Samples;Min_cycle;Max_cycle;Signal;HPM_P1;HPM_P2
2021/10/30 00:01:07;;;;;;;11.55;6.55;;;;;;;5.40;97.46;95813.09;5064467;28;20059;-68
2021/10/30 00:03:34;;;;;;;12.48;6.43;;;;;;;5.41;98.54;95817.28;5063457;28;20041;-68
2021/10/30 00:06:00;;;;;;;19.63;8.10;;;;;;;5.39;98.81;95810.69;5051377;28;20043;-68
2021/10/30 00:08:29;;;;;;;17.10;6.82;;;;;;;5.41;98.80;95808.75;5064241;28;20054;-68
2021/10/30 00:10:58;;;;;;;17.73;7.75;;;;;;;5.49;98.02;95812.06;5064108;28;20068;-68
2021/10/30 00:13:26;;;;;;;15.43;7.18;;;;;;;5.39;99.04;95815.88;5064277;28;20045;-68
2021/10/30 00:15:54;;;;;;;12.32;7.25;;;;;;;5.25;100.00;95804.50;5064045;28;20052;-68
2021/10/30 00:18:21;;;;;;;13.20;6.60;;;;;;;5.24;100.00;95819.22;5066693;28;20048;-68
2021/10/30 00:20:48;;;;;;;13.60;7.50;;;;;;;5.24;100.00;95808.06;5064311;28;20102;-68
2021/10/30 00:23:15;;;;;;;19.20;9.15;;;;;;;5.22;100.00;95805.66;5067258;28;20037;-68
2021/10/30 00:25:43;;;;;;;16.73;8.25;;;;;;;5.32;100.00;95815.75;5063938;28;20044;-68
2021/10/30 00:28:10;;;;;;;15.52;8.40;;;;;;;5.17;100.00;95811.34;5066890;28;20040;-68
2021/10/30 00:30:36;;;;;;;16.05;8.57;;;;;;;5.11;100.00;95806.88;5064328;28;20049;-68
2021/10/30 00:33:03;;;;;;;15.43;8.15;;;;;;;5.20;100.00;95801.63;5063712;28;20036;-69
2021/10/30 00:35:30;;;;;;;19.75;9.38;;;;;;;5.29;100.00;95800.59;5068257;28;20047;-68
2021/10/30 00:37:57;;;;;;;14.30;8.13;;;;;;;5.24;100.00;95787.38;5065461;28;20455;-69
2021/10/30 00:40:25;;;;;;;23.45;11.38;;;;;;;5.27;100.00;95797.38;5069805;28;20098;-68
2021/10/30 00:42:52;;;;;;;20.02;10.30;;;;;;;5.34;100.00;95798.28;5067865;28;20052;-68
2021/10/30 00:45:19;;;;;;;17.30;8.80;;;;;;;5.39;100.00;95801.16;5067558;28;20521;-69
2021/10/30 00:47:46;;;;;;;16.27;8.98;;;;;;;5.43;100.00;95802.41;5068914;28;20043;-68
2021/10/30 00:50:13;;;;;;;15.43;8.23;;;;;;;5.44;100.00;95792.88;5052808;28;20040;-69
2021/10/30 00:52:42;;;;;;;16.08;8.73;;;;;;;5.42;100.00;95782.72;5067605;28;20048;-68
2021/10/30 00:55:10;;;;;;;16.52;8.98;;;;;;;5.57;100.00;95794.88;5069369;28;20485;-68
2021/10/30 00:57:41;;;;;;;17.00;8.68;;;;;;;5.67;100.00;95798.00;5069041;28;20032;-69
2021/10/30 01:00:09;;;;;;;13.93;7.40;;;;;;;5.72;100.00;95790.53;5068733;28;20053;-69
2021/10/30 01:02:36;;;;;;;15.27;8.65;;;;;;;5.80;100.00;95787.88;5066384;28;20102;-69
2021/10/30 01:05:04;;;;;;;18.58;9.45;;;;;;;5.88;100.00;95790.34;5072093;28;20044;-68
2021/10/30 02:30:16;;;;;;;19.95;9.65;;;;;;;5.77;100.00;95746.84;4803230;29;20055;-70
2021/10/30 02:33:27;;;;;;;21.60;9.02;;;;;;;5.87;100.00;95767.25;4777771;29;20047;-70
2021/10/30 02:36:51;;;;;;;26.33;9.82;;;;;;;5.79;100.00;95773.31;5024751;27;1304952;-69
2021/10/30 02:47:47;;;;;;;16.55;7.63;;;;;;;5.68;100.00;95776.34;4927654;29;20598;-69
2021/10/30 02:52:00;;;;;;;15.98;8.90;;;;;;;5.62;100.00;95774.47;4828780;29;20544;-69
2021/10/30 03:00:29;;;;;;;20.25;10.60;;;;;;;5.48;100.00;95779.44;5184591;27;24972;-69
2021/10/30 03:04:16;;;;;;;25.58;11.88;;;;;;;5.44;100.00;95773.03;5118740;27;20058;-70
2021/10/30 03:15:31;;;;;;;23.75;10.75;;;;;;;5.15;100.00;95779.72;5014119;28;20097;-70
2021/10/30 03:23:47;;;;;;;16.40;8.70;;;;;;;4.73;100.00;95791.28;4938792;28;20122;-70
2021/10/30 03:30:49;;;;;;;17.45;8.68;;;;;;;4.26;100.00;95789.59;4976247;28;20054;-70
2021/10/30 03:34:42;;;;;;;16.15;8.80;;;;;;;4.36;100.00;95784.25;4943904;28;20050;-69
2021/10/30 03:56:54;;;;;;;19.35;9.82;;;;;;;4.12;100.00;95793.66;4814387;29;20463;-70
2021/10/30 04:10:51;;;;;;;19.17;7.82;;;;;;;4.42;100.00;95788.72;4940910;29;20048;-69
2021/10/30 04:13:18;;;;;;;17.23;8.07;;;;;;;4.45;100.00;95779.81;4940645;28;20055;-70
2021/10/30 04:15:44;;;;;;;17.10;7.90;;;;;;;4.40;100.00;95781.16;4941515;29;20916;-70
2021/10/30 04:18:11;;;;;;;17.75;7.93;;;;;;;4.45;100.00;95784.97;4941262;28;20059;-70
2021/10/30 04:20:38;;;;;;;19.05;8.75;;;;;;;4.43;100.00;95789.50;4940948;29;20449;-70
2021/10/30 04:23:58;;;;;;;16.13;8.70;;;;;;;4.46;100.00;95789.19;4941379;28;20055;-70
2021/10/30 04:28:11;;;;;;;15.00;7.60;;;;;;;4.36;100.00;95789.41;4814552;29;20085;-70
2021/10/30 04:39:33;;;;;;;19.58;9.48;;;;;;;4.31;100.00;95781.34;4978727;28;20531;-69
2021/10/30 04:51:17;;;;;;;42.35;19.98;;;;;;;4.43;100.00;95774.03;4821113;29;20046;-69
2021/10/30 04:58:55;;;;;;;23.38;12.45;;;;;;;4.33;100.00;95769.88;4817571;29;20057;-69
2021/10/30 05:06:28;;;;;;;20.67;9.38;;;;;;;4.36;100.00;95768.78;4785230;29;20053;-69
2021/10/30 05:53:10;;;;;;;15.35;7.82;;;;;;;4.64;100.00;95781.97;4941431;28;20057;-70
2021/10/30 13:00:16;;;;;;;5.93;3.87;;;;;;;18.05;41.92;95539.66;5059203;27;1972751;-74
2021/10/30 13:02:44;;;;;;;6.60;4.45;;;;;;;18.11;42.78;95543.91;5062778;28;20050;-73
2021/10/30 13:05:16;;;;;;;4.93;3.55;;;;;;;18.29;43.10;95550.53;5061563;28;20064;-74
2021/10/30 13:07:56;;;;;;;5.95;3.38;;;;;;;17.71;42.89;95534.78;5061756;28;20045;-73
2021/10/30 13:10:28;;;;;;;5.00;3.67;;;;;;;17.57;43.51;95533.69;5062798;28;20477;-74
2021/10/30 13:12:55;;;;;;;5.35;3.60;;;;;;;17.62;42.93;95546.88;5062180;28;20056;-73
2021/10/30 13:15:22;;;;;;;3.92;2.90;;;;;;;17.87;43.46;95550.69;5062293;28;20045;-73
2021/10/30 13:17:49;;;;;;;3.67;3.22;;;;;;;17.41;43.27;95555.72;5062784;28;20049;-73
2021/10/30 13:20:16;;;;;;;5.00;3.22;;;;;;;17.13;44.39;95549.81;5062238;28;20047;-73
2021/10/30 13:22:46;;;;;;;4.25;3.05;;;;;;;17.05;44.38;95542.38;5062821;28;20040;-73
2021/10/30 13:25:14;;;;;;;7.10;2.90;;;;;;;16.75;45.04;95538.47;5042994;28;20090;-72
2021/10/30 13:27:41;;;;;;;9.57;3.08;;;;;;;16.93;44.95;95551.25;5062290;28;20032;-73
2021/10/30 13:30:09;;;;;;;5.15;2.67;;;;;;;17.25;44.91;95557.47;5062101;28;20055;-73
2021/10/30 13:32:36;;;;;;;3.65;2.88;;;;;;;16.96;45.54;95556.03;5061770;28;20041;-73
2021/10/30 13:35:05;;;;;;;5.45;3.30;;;;;;;16.91;45.67;95552.56;5062439;28;20052;-73
2021/10/30 13:37:31;;;;;;;4.13;2.88;;;;;;;17.11;44.72;95552.69;5062346;28;20041;-73
2021/10/30 13:39:58;;;;;;;6.18;3.03;;;;;;;16.80;46.08;95567.44;5062040;28;20041;-74
2021/10/30 13:42:25;;;;;;;5.53;3.13;;;;;;;16.83;47.14;95545.91;5061988;28;20056;-73
2021/10/30 13:44:52;;;;;;;5.35;3.15;;;;;;;16.55;45.96;95560.94;5062273;28;20044;-73
2021/10/30 13:47:18;;;;;;;4.88;3.38;;;;;;;16.60;45.90;95558.34;5060975;28;20049;-74
2021/10/30 13:49:45;;;;;;;4.15;2.90;;;;;;;16.46;47.05;95557.19;5062139;28;20045;-74
2021/10/30 13:52:13;;;;;;;5.60;3.33;;;;;;;16.49;46.36;95556.66;5060876;28;20152;-73
2021/10/30 13:54:45;;;;;;;11.52;3.78;;;;;;;16.11;46.98;95555.78;5061415;28;20048;-73
2021/10/30 13:57:11;;;;;;;4.82;2.53;;;;;;;16.05;47.80;95544.44;5059575;28;20115;-73
2021/10/30 13:59:38;;;;;;;8.55;3.60;;;;;;;15.93;47.52;95543.00;5061404;28;20083;-73
2021/10/30 14:02:07;;;;;;;5.95;3.38;;;;;;;16.05;47.19;95567.31;5060735;28;20048;-72
2021/10/30 14:04:34;;;;;;;4.95;3.03;;;;;;;16.01;47.10;95551.25;5062139;28;20041;-74
2021/10/30 14:07:01;;;;;;;6.70;2.85;;;;;;;16.27;46.77;95555.94;5061413;28;20041;-74
2021/10/30 14:09:28;;;;;;;4.97;3.28;;;;;;;16.42;46.88;95556.06;5061154;28;20052;-72
2021/10/30 14:11:54;;;;;;;6.18;3.38;;;;;;;15.89;46.78;95558.47;5047808;28;20048;-73
2021/10/30 14:14:23;;;;;;;3.65;2.53;;;;;;;15.43;48.37;95565.75;5048278;28;20540;-72
2021/10/30 14:16:49;;;;;;;4.38;3.17;;;;;;;15.36;48.79;95571.19;5048197;28;20044;-72
2021/10/30 14:19:16;;;;;;;7.57;3.58;;;;;;;15.27;49.42;95567.41;5048177;28;20033;-72
2021/10/30 14:21:43;;;;;;;5.78;3.22;;;;;;;14.83;50.51;95551.56;5047970;28;20040;-71
2021/10/30 14:24:11;;;;;;;6.55;3.65;;;;;;;15.07;50.86;95558.22;5047991;28;20468;-72
2021/10/30 14:26:37;;;;;;;7.10;3.28;;;;;;;15.16;49.64;95560.41;5047781;28;20045;-72
2021/10/30 14:29:05;;;;;;;8.77;4.07;;;;;;;15.09;50.63;95550.09;5047376;28;20041;-73
2021/10/30 14:31:31;;;;;;;6.15;3.72;;;;;;;14.86;50.42;95572.84;5047328;28;20056;-73
2021/10/30 14:33:58;;;;;;;9.13;4.63;;;;;;;14.70;51.71;95553.47;5030194;28;20111;-72
2021/10/30 14:36:25;;;;;;;4.80;3.25;;;;;;;14.90;50.16;95567.94;5047724;28;20410;-73
2021/10/30 14:38:53;;;;;;;4.35;2.92;;;;;;;14.70;51.62;95558.72;5048421;28;20490;-73
2021/10/30 14:41:21;;;;;;;7.57;4.05;;;;;;;13.95;53.40;95568.44;5047905;28;20497;-72
2021/10/30 14:43:49;;;;;;;6.63;4.18;;;;;;;13.84;54.55;95566.63;5046975;28;20052;-73
2021/10/30 14:46:17;;;;;;;11.02;6.75;;;;;;;13.77;54.62;95573.81;5029811;28;20564;-73
2021/10/30 14:48:44;;;;;;;8.23;5.50;;;;;;;13.66;54.85;95574.66;5046014;28;20049;-73
2021/10/30 14:51:12;;;;;;;5.00;3.42;;;;;;;13.26;56.94;95570.16;5045979;28;20047;-73
2021/10/30 14:53:38;;;;;;;8.20;3.60;;;;;;;12.90;58.26;95561.53;5047366;28;20045;-73
2021/10/30 14:56:05;;;;;;;7.35;4.30;;;;;;;12.74;58.93;95569.00;5047269;28;20041;-73
2021/10/30 14:58:32;;;;;;;8.43;4.82;;;;;;;12.50;60.61;95572.63;5045948;28;20090;-72
2021/10/30 15:00:59;;;;;;;8.00;4.07;;;;;;;12.28;61.15;95575.75;5047239;28;20066;-72
2021/10/30 15:03:26;;;;;;;6.55;4.32;;;;;;;12.19;61.65;95587.50;5047114;28;20115;-70
2021/10/30 15:05:53;;;;;;;13.25;5.03;;;;;;;11.91;63.32;95591.50;5046795;28;20848;-71
2021/10/30 15:08:20;;;;;;;9.35;5.00;;;;;;;11.58;64.23;95591.88;5047666;28;20041;-71
2021/10/30 15:10:47;;;;;;;8.38;4.68;;;;;;;11.46;65.20;95595.19;5047185;28;20043;-72
2021/10/30 15:13:14;;;;;;;8.60;4.80;;;;;;;11.33;66.24;95607.59;5046779;28;20067;-74
2021/10/30 15:15:41;;;;;;;10.75;5.60;;;;;;;11.31;66.22;95601.78;5047202;28;20045;-75
2021/10/30 15:18:09;;;;;;;11.07;5.80;;;;;;;10.71;68.45;95597.88;5045226;28;20107;-76
2021/10/30 15:20:36;;;;;;;9.95;4.53;;;;;;;10.60;69.95;95601.97;5046637;28;20040;-75
2021/10/30 15:23:03;;;;;;;10.60;5.68;;;;;;;10.43;70.24;95603.53;5028166;28;20045;-75
2021/10/30 15:25:30;;;;;;;11.48;6.45;;;;;;;10.22;71.69;95605.41;5046535;28;20398;-75
2021/10/30 15:27:57;;;;;;;8.13;5.00;;;;;;;10.06;72.63;95611.88;5046113;28;20052;-78
2021/10/30 15:30:24;;;;;;;9.55;4.93;;;;;;;10.06;72.81;95611.88;5046284;28;20464;-74
2021/10/30 15:32:51;;;;;;;19.33;10.60;;;;;;;9.82;74.05;95607.41;5045819;28;20055;-74
2021/10/30 15:35:20;;;;;;;20.70;11.38;;;;;;;9.89;74.35;95616.00;5046194;28;20095;-75
2021/10/30 15:37:47;;;;;;;11.45;6.50;;;;;;;9.86;74.05;95617.19;5045101;28;20053;-74
2021/10/30 15:40:14;;;;;;;13.93;6.03;;;;;;;9.72;74.63;95616.47;5044659;28;20498;-74
2021/10/30 15:42:42;;;;;;;12.43;6.32;;;;;;;9.70;75.57;95626.25;5045977;28;20573;-74
2021/10/30 15:45:16;;;;;;;10.07;5.80;;;;;;;9.60;75.53;95618.09;5045733;28;20052;-73
2021/10/30 15:47:44;;;;;;;11.18;6.68;;;;;;;9.32;76.75;95608.75;5046031;28;20106;-73
2021/10/30 15:50:11;;;;;;;16.48;8.60;;;;;;;9.41;76.71;95624.16;5046027;28;20569;-74
2021/10/30 15:52:38;;;;;;;17.17;8.93;;;;;;;9.27;77.44;95624.16;5045579;28;20624;-75
2021/10/30 15:55:05;;;;;;;15.65;8.88;;;;;;;9.04;78.15;95618.59;5045984;28;20429;-74
2021/10/30 15:57:33;;;;;;;16.05;8.15;;;;;;;9.08;78.51;95635.41;5044574;28;20057;-74
2021/10/30 16:00:02;;;;;;;18.80;9.18;;;;;;;8.98;78.95;95636.63;5044433;28;20046;-73
2021/10/30 16:02:30;;;;;;;14.15;7.95;;;;;;;8.92;79.21;95642.59;5042103;28;20049;-74
2021/10/30 16:04:57;;;;;;;11.98;6.25;;;;;;;8.82;79.36;95644.78;5039498;28;20040;-73
2021/10/30 16:07:23;;;;;;;17.13;8.13;;;;;;;8.81;79.60;95651.00;5007047;28;20048;-74
2021/10/30 16:09:50;;;;;;;13.63;7.22;;;;;;;8.91;79.49;95651.41;5042867;28;20037;-73
2021/10/30 16:12:22;;;;;;;12.27;7.32;;;;;;;8.92;78.92;95657.38;5042021;28;20519;-73
2021/10/30 16:14:50;;;;;;;15.30;7.22;;;;;;;8.93;78.79;95641.59;5024533;28;20091;-72
2021/10/30 16:17:17;;;;;;;10.95;6.57;;;;;;;8.95;78.51;95642.19;5042602;28;20060;-73
2021/10/30 16:19:45;;;;;;;17.60;9.32;;;;;;;9.11;78.54;95660.97;5036824;28;20037;-73
2021/10/30 16:22:12;;;;;;;17.45;8.68;;;;;;;8.84;79.71;95671.38;5039486;28;20043;-73
2021/10/30 16:24:39;;;;;;;15.05;9.68;;;;;;;8.81;80.20;95671.78;5011870;28;20052;-73
2021/10/30 16:27:06;;;;;;;18.35;10.85;;;;;;;8.74;80.83;95676.16;5034575;28;20045;-73
2021/10/30 16:29:32;;;;;;;24.88;13.90;;;;;;;8.82;80.57;95678.53;5034476;28;20053;-73
2021/10/30 16:32:00;;;;;;;32.63;16.83;;;;;;;8.72;80.86;95683.34;5040932;28;20120;-74
2021/10/30 16:34:27;;;;;;;23.52;11.63;;;;;;;8.76;80.01;95679.34;5022594;28;20044;-73
2021/10/30 16:36:56;;;;;;;18.73;9.48;;;;;;;8.67;80.41;95690.94;5041210;28;20051;-73
2021/10/30 16:39:25;;;;;;;20.67;10.13;;;;;;;8.57;81.05;95691.28;5037907;28;20442;-73
2021/10/30 16:41:52;;;;;;;18.88;9.90;;;;;;;8.65;81.03;95698.91;5035894;28;20056;-72
2021/10/30 16:44:19;;;;;;;21.83;10.95;;;;;;;8.69;80.89;95694.13;5038664;28;22050;-73
2021/10/30 16:46:48;;;;;;;22.02;10.90;;;;;;;8.36;81.56;95669.66;5037085;28;20049;-73
2021/10/30 16:49:16;;;;;;;15.27;9.25;;;;;;;8.40;82.93;95701.22;5036151;28;20072;-74
2021/10/30 16:51:44;;;;;;;19.42;9.02;;;;;;;8.37;82.66;95706.78;5033571;28;20048;-74
2021/10/30 16:54:11;;;;;;;27.35;17.45;;;;;;;8.41;84.48;95715.81;5036083;28;20044;-74
2021/10/30 16:56:39;;;;;;;20.38;9.52;;;;;;;8.45;83.45;95713.66;5032030;28;20607;-74
2021/10/30 16:59:06;;;;;;;13.07;7.22;;;;;;;8.40;83.13;95696.03;5035843;28;20410;-73
2021/10/30 17:01:33;;;;;;;17.17;7.50;;;;;;;8.63;82.48;95715.69;5035246;28;20103;-75
2021/10/30 17:04:01;;;;;;;13.95;7.38;;;;;;;8.74;82.25;95712.53;5040433;28;20053;-73
2021/10/30 17:06:27;;;;;;;14.30;7.22;;;;;;;8.85;81.29;95719.72;5039067;28;20055;-73
2021/10/30 17:08:57;;;;;;;13.85;7.00;;;;;;;8.87;80.50;95712.53;5037137;28;20453;-75
2021/10/30 17:11:25;;;;;;;14.70;6.70;;;;;;;9.03;79.82;95707.97;5038125;28;20053;-74
2021/10/30 17:13:53;;;;;;;11.38;6.20;;;;;;;8.97;80.20;95702.56;5042671;28;20072;-74
2021/10/30 17:16:19;;;;;;;11.00;6.65;;;;;;;9.13;79.75;95718.78;5037898;28;20071;-74
2021/10/30 17:18:47;;;;;;;14.15;6.78;;;;;;;9.22;79.29;95720.16;5035895;28;20041;-76
2021/10/30 17:21:14;;;;;;;16.55;6.93;;;;;;;9.25;79.48;95719.75;5036369;28;20595;-72
2021/10/30 17:23:44;;;;;;;17.05;8.15;;;;;;;9.23;78.97;95721.75;5022194;28;20187;-74
2021/10/30 17:26:11;;;;;;;13.88;7.50;;;;;;;9.17;79.55;95719.97;5042041;28;20065;-73
2021/10/30 17:28:38;;;;;;;10.07;5.18;;;;;;;9.01;79.94;95712.56;5038886;28;20396;-73
2021/10/30 17:31:06;;;;;;;15.57;6.38;;;;;;;9.05;79.94;95718.94;5039801;28;20072;-74
2021/10/30 17:33:33;;;;;;;9.02;5.70;;;;;;;8.88;80.64;95721.94;5022367;28;20076;-75
2021/10/30 17:36:00;;;;;;;10.95;5.38;;;;;;;8.96;80.61;95726.94;5039998;28;20068;-74
2021/10/30 17:38:27;;;;;;;11.23;5.38;;;;;;;8.91;81.20;95728.53;5039836;28;20064;-75
2021/10/30 17:40:54;;;;;;;11.02;5.25;;;;;;;8.89;81.20;95720.91;5040830;28;20057;-76
2021/10/30 17:43:25;;;;;;;11.68;5.43;;;;;;;8.68;81.44;95697.72;5040110;28;20049;-75
2021/10/30 17:45:52;;;;;;;10.25;5.45;;;;;;;8.88;81.38;95724.53;5038857;28;20115;-76
2021/10/30 17:48:18;;;;;;;11.73;5.50;;;;;;;8.87;81.87;95728.13;5042542;28;20040;-74
2021/10/30 17:50:45;;;;;;;16.65;7.68;;;;;;;8.96;81.99;95718.34;5021674;28;20111;-75
2021/10/30 17:53:13;;;;;;;9.52;5.15;;;;;;;8.99;80.97;95716.16;5026518;28;20048;-75
2021/10/30 17:55:44;;;;;;;12.07;6.20;;;;;;;9.17;80.55;95727.75;5023703;28;20505;-73
2021/10/30 17:58:11;;;;;;;8.82;5.15;;;;;;;9.20;80.77;95727.38;5045022;28;20107;-74
2021/10/30 18:00:44;;;;;;;8.32;5.15;;;;;;;9.42;79.73;95724.53;5039475;28;20131;-74
2021/10/30 18:03:12;;;;;;;17.00;6.65;;;;;;;9.66;77.97;95723.91;5039669;28;20049;-73
2021/10/30 18:05:39;;;;;;;13.45;7.22;;;;;;;9.92;76.88;95719.66;5042734;28;20522;-74
2021/10/30 18:08:07;;;;;;;20.50;9.85;;;;;;;10.11;75.72;95724.00;5043629;28;20055;-72
2021/10/30 18:10:34;;;;;;;30.55;14.20;;;;;;;10.09;76.45;95720.81;5042101;28;20041;-74
2021/10/30 18:13:01;;;;;;;23.10;11.55;;;;;;;10.17;76.89;95721.56;5039423;28;20065;-74
2021/10/30 18:15:30;;;;;;;16.65;9.18;;;;;;;10.30;76.35;95724.16;5025677;28;20041;-74
2021/10/30 18:17:57;;;;;;;12.20;7.25;;;;;;;10.61;74.43;95738.25;5022338;28;20063;-74
2021/10/30 18:20:24;;;;;;;13.32;6.75;;;;;;;10.76;73.59;95727.53;5040283;28;20448;-75
2021/10/30 18:22:54;;;;;;;8.90;5.60;;;;;;;10.87;72.58;95727.66;5042465;28;20151;-74
2021/10/30 18:25:21;;;;;;;9.80;5.20;;;;;;;10.95;71.88;95723.19;5043580;28;20040;-74
2021/10/30 18:27:48;;;;;;;11.88;6.93;;;;;;;10.88;72.77;95729.25;5040317;28;20053;-75
2021/10/30 18:30:15;;;;;;;15.50;7.25;;;;;;;10.87;72.73;95735.47;5040142;28;20497;-74
2021/10/30 18:32:43;;;;;;;11.90;7.03;;;;;;;10.69;73.65;95724.97;5024362;28;20052;-74
2021/10/30 18:35:11;;;;;;;18.15;8.20;;;;;;;10.39;75.33;95725.53;5040851;28;20513;-75
2021/10/30 18:37:37;;;;;;;19.42;10.35;;;;;;;10.37;75.25;95722.34;5038226;28;20064;-74
2021/10/30 18:40:07;;;;;;;20.15;11.45;;;;;;;10.21;76.12;95720.97;5038091;28;20492;-74
2021/10/30 18:42:36;;;;;;;21.00;11.60;;;;;;;10.10;76.78;95719.81;5038293;28;20045;-73
2021/10/30 18:45:08;;;;;;;17.00;9.60;;;;;;;9.95;77.86;95714.81;5040677;28;20431;-73
2021/10/30 18:47:35;;;;;;;12.98;7.28;;;;;;;9.93;78.06;95710.84;5042008;28;20057;-73
2021/10/30 18:50:02;;;;;;;8.15;5.32;;;;;;;9.71;78.44;95718.13;5041945;28;20155;-73
2021/10/30 18:52:29;;;;;;;10.63;5.40;;;;;;;9.74;78.79;95722.88;5042800;28;20092;-73
2021/10/30 18:54:56;;;;;;;6.57;4.10;;;;;;;9.48;79.59;95692.53;5042126;28;20037;-72
2021/10/30 18:57:23;;;;;;;10.40;5.35;;;;;;;9.50;80.91;95716.53;5025133;28;20056;-73
2021/10/30 18:59:50;;;;;;;10.57;5.63;;;;;;;9.45;80.62;95714.53;5040885;28;20037;-73
2021/10/30 19:02:17;;;;;;;9.77;5.65;;;;;;;9.43;81.42;95716.53;5025563;28;20083;-72
2021/10/30 19:04:44;;;;;;;9.02;5.38;;;;;;;9.22;81.91;95720.16;5043223;28;20132;-73
2021/10/30 19:07:11;;;;;;;15.57;6.75;;;;;;;9.31;81.71;95718.13;5041320;28;20047;-73
2021/10/30 19:09:41;;;;;;;10.93;5.97;;;;;;;9.27;81.83;95712.53;5041934;28;20037;-72
2021/10/30 19:12:08;;;;;;;11.32;5.95;;;;;;;9.34;81.09;95702.94;5038135;28;20053;-72
2021/10/30 19:14:36;;;;;;;13.23;7.32;;;;;;;9.38;80.78;95711.13;5037544;28;20410;-73
2021/10/30 19:17:04;;;;;;;8.27;5.40;;;;;;;9.23;81.41;95720.94;5037781;28;22043;-72
2021/10/30 19:19:31;;;;;;;10.25;4.25;;;;;;;9.25;81.62;95724.16;5038121;28;20403;-72
2021/10/30 19:21:58;;;;;;;9.95;5.63;;;;;;;9.08;81.94;95715.97;5038698;28;20044;-73
2021/10/30 19:24:30;;;;;;;10.32;5.53;;;;;;;9.31;80.63;95718.97;5038819;28;20071;-73
2021/10/30 19:26:59;;;;;;;11.40;6.68;;;;;;;9.38;80.02;95724.13;5038308;28;20041;-74
2021/10/30 19:29:26;;;;;;;9.63;5.70;;;;;;;9.31;80.53;95721.56;5041460;28;20047;-73
2021/10/30 19:31:53;;;;;;;13.93;7.50;;;;;;;9.48;79.81;95728.94;5036924;28;20052;-73
2021/10/30 19:34:21;;;;;;;9.77;5.38;;;;;;;9.65;79.10;95735.34;5039926;28;20047;-73
2021/10/30 19:36:48;;;;;;;14.45;7.00;;;;;;;9.86;77.59;95736.09;5037976;28;20036;-72
2021/10/30 19:39:15;;;;;;;9.57;5.70;;;;;;;10.01;76.32;95739.25;5037848;28;20041;-72
2021/10/30 19:41:44;;;;;;;17.08;6.10;;;;;;;10.20;75.42;95739.41;5040027;28;20049;-73
2021/10/30 19:44:13;;;;;;;11.30;4.95;;;;;;;10.27;75.12;95742.78;5041108;28;20048;-72
2021/10/30 19:46:41;;;;;;;9.38;5.07;;;;;;;10.12;75.31;95741.22;5038432;28;20514;-73
2021/10/30 19:49:08;;;;;;;14.13;7.25;;;;;;;10.09;75.26;95736.41;5038492;28;20098;-72
2021/10/30 19:51:36;;;;;;;14.45;7.57;;;;;;;9.77;76.17;95738.88;5041532;28;20036;-73
2021/10/30 19:54:04;;;;;;;11.40;6.43;;;;;;;9.43;77.84;95744.34;5042629;28;20072;-73
2021/10/30 19:56:31;;;;;;;10.82;5.47;;;;;;;9.42;78.44;95734.94;5042973;28;20506;-73
2021/10/30 19:58:58;;;;;;;10.45;5.43;;;;;;;9.07;80.17;95737.75;5042673;28;20472;-73
2021/10/30 20:01:25;;;;;;;9.18;5.80;;;;;;;8.91;80.73;95736.31;5042280;28;20045;-73
2021/10/30 20:03:52;;;;;;;10.30;6.00;;;;;;;8.77;82.11;95743.31;5044047;28;20061;-73
2021/10/30 20:06:20;;;;;;;14.43;6.22;;;;;;;8.90;81.33;95740.72;5027332;28;21136;-72
2021/10/30 20:08:47;;;;;;;14.35;5.70;;;;;;;8.91;81.46;95744.94;5043748;28;20060;-73
2021/10/30 20:11:14;;;;;;;10.55;5.60;;;;;;;8.90;81.44;95730.31;5042936;28;20048;-72
2021/10/30 20:13:41;;;;;;;11.52;5.72;;;;;;;8.84;82.02;95743.28;5026043;28;20048;-72
2021/10/30 20:16:09;;;;;;;13.38;6.00;;;;;;;8.66;82.70;95743.84;5023260;28;20072;-73
2021/10/30 20:18:37;;;;;;;9.45;5.97;;;;;;;8.58;82.92;95743.03;5023563;28;20048;-73
2021/10/30 20:21:04;;;;;;;10.68;6.18;;;;;;;8.72;82.36;95745.69;5041148;28;20044;-73
2021/10/30 20:23:34;;;;;;;15.88;6.43;;;;;;;8.76;81.97;95741.69;5040492;28;20068;-72
2021/10/30 20:26:01;;;;;;;12.80;5.30;;;;;;;8.53;82.96;95742.81;5042272;28;20510;-73
2021/10/30 20:28:29;;;;;;;11.95;6.10;;;;;;;8.49;83.35;95733.81;5040490;28;20037;-73
2021/10/30 20:30:56;;;;;;;9.10;5.55;;;;;;;8.41;83.10;95724.41;5041719;28;20048;-73
2021/10/30 20:33:23;;;;;;;11.85;5.47;;;;;;;8.58;82.27;95729.25;5038686;28;20059;-72
2021/10/30 20:35:50;;;;;;;11.13;5.20;;;;;;;8.67;81.97;95727.28;5041390;28;20549;-72
2021/10/30 20:38:17;;;;;;;9.82;5.63;;;;;;;8.69;81.68;95730.50;5041828;28;20041;-72
2021/10/30 20:40:55;;;;;;;10.70;5.97;;;;;;;8.13;84.03;95715.91;5041788;28;20468;-72
2021/10/30 20:43:22;;;;;;;12.25;7.18;;;;;;;8.17;84.01;95725.69;5038828;28;20029;-72
2021/10/30 20:45:49;;;;;;;17.58;8.15;;;;;;;8.43;83.04;95732.03;5041012;28;20051;-71
2021/10/30 20:48:16;;;;;;;20.48;10.65;;;;;;;8.37;83.13;95724.97;5041355;28;20053;-72
2021/10/30 20:50:43;;;;;;;16.02;8.80;;;;;;;8.28;83.42;95697.59;5040927;28;20040;-72
2021/10/30 20:53:10;;;;;;;16.88;8.63;;;;;;;8.37;82.79;95722.38;5041759;28;20045;-72
2021/10/30 20:55:37;;;;;;;21.23;8.25;;;;;;;8.44;82.43;95723.22;5043659;28;20423;-73
2021/10/30 20:58:07;;;;;;;17.75;7.65;;;;;;;8.47;81.80;95717.66;5041997;28;20045;-73
2021/10/30 21:00:38;;;;;;;18.13;8.32;;;;;;;8.53;80.69;95716.84;5039061;28;20045;-72
2021/10/30 21:03:05;;;;;;;14.38;6.90;;;;;;;8.26;81.80;95715.16;5042187;28;20053;-73
2021/10/30 21:05:32;;;;;;;15.05;7.88;;;;;;;7.61;85.40;95718.03;5042201;28;20464;-73
2021/10/30 21:07:59;;;;;;;37.28;12.13;;;;;;;7.47;86.44;95717.97;5041989;28;20545;-73
2021/10/30 21:10:26;;;;;;;27.00;9.50;;;;;;;7.34;87.62;95715.25;5043540;28;20510;-73
2021/10/30 21:12:52;;;;;;;20.25;8.60;;;;;;;7.32;87.14;95712.06;5043025;28;20055;-73
2021/10/30 21:15:19;;;;;;;16.10;5.65;;;;;;;7.05;88.08;95711.84;5042363;28;20785;-72
2021/10/30 21:17:46;;;;;;;26.52;10.23;;;;;;;6.69;90.70;95712.72;5037632;28;20033;-73
2021/10/30 21:20:13;;;;;;;23.00;11.13;;;;;;;6.63;91.32;95705.72;5036902;28;20037;-72
2021/10/30 21:22:41;;;;;;;32.72;11.02;;;;;;;6.54;91.51;95686.09;5040350;28;20047;-72
2021/10/30 21:25:08;;;;;;;31.73;11.80;;;;;;;6.43;92.46;95689.19;5042377;28;20441;-73
2021/10/30 21:27:34;;;;;;;29.58;12.60;;;;;;;6.72;91.17;95708.16;5046548;28;20118;-72
2021/10/30 21:30:03;;;;;;;24.50;10.38;;;;;;;6.74;91.04;95701.03;5045069;28;20048;-73
2021/10/30 21:32:29;;;;;;;23.15;10.13;;;;;;;6.63;90.89;95689.38;5045690;28;20033;-73
2021/10/30 21:34:57;;;;;;;28.30;12.30;;;;;;;6.45;91.76;95697.56;5046413;28;20045;-72
2021/10/30 21:37:23;;;;;;;60.70;20.08;;;;;;;6.21;93.05;95696.91;5045198;28;20045;-72
2021/10/30 21:39:50;;;;;;;71.13;19.55;;;;;;;6.35;92.38;95694.47;5046137;28;20045;-73
2021/10/30 21:42:17;;;;;;;41.78;13.93;;;;;;;6.27;92.65;95698.75;5045520;28;20041;-72
2021/10/30 21:44:44;;;;;;;28.50;10.77;;;;;;;6.00;94.07;95689.09;5045995;28;20414;-74
2021/10/30 21:47:11;;;;;;;57.03;17.88;;;;;;;5.84;95.90;95690.88;5045797;28;20460;-73
2021/10/30 21:49:38;;;;;;;41.38;15.95;;;;;;;5.69;96.92;95677.13;5043939;28;20554;-73
2021/10/30 21:52:05;;;;;;;39.70;15.85;;;;;;;5.78;97.57;95689.00;5046303;28;20041;-73
2021/10/30 21:54:32;;;;;;;31.17;14.80;;;;;;;5.76;97.62;95685.78;5027965;28;20072;-74
2021/10/30 21:56:59;;;;;;;44.70;14.85;;;;;;;5.76;97.24;95688.38;5045395;28;20451;-73
2021/10/30 21:59:26;;;;;;;60.58;15.02;;;;;;;5.69;97.45;95682.31;5042875;28;20045;-73
2021/10/30 22:01:53;;;;;;;40.00;14.68;;;;;;;5.76;96.92;95678.03;5046550;28;20041;-73
2021/10/30 22:04:20;;;;;;;33.17;11.43;;;;;;;5.83;96.05;95678.91;5046310;28;20041;-74
2021/10/30 22:06:47;;;;;;;32.75;13.32;;;;;;;5.76;96.29;95680.59;5047447;28;20037;-74
2021/10/30 22:09:14;;;;;;;38.08;13.88;;;;;;;5.52;98.59;95674.75;5046758;28;20056;-72
2021/10/30 22:11:41;;;;;;;42.25;13.63;;;;;;;5.46;98.44;95678.03;5046514;28;20067;-72
2021/10/30 22:14:08;;;;;;;31.20;11.68;;;;;;;5.67;97.80;95679.09;5046820;28;20049;-72
2021/10/30 22:16:37;;;;;;;32.95;10.10;;;;;;;5.69;97.30;95682.31;5046752;28;20037;-72
2021/10/30 22:19:06;;;;;;;29.25;10.35;;;;;;;5.67;97.10;95668.75;5045517;28;20536;-73
2021/10/30 22:21:35;;;;;;;28.48;11.43;;;;;;;5.89;96.08;95683.38;5046692;28;20056;-73
2021/10/30 22:24:01;;;;;;;30.13;11.43;;;;;;;5.90;94.68;95666.88;5046282;28;20049;-73